sensor_id;sensor_type;location;lat;lon;timestamp;temperature;humidity
51007;DHT22;37034;47.886;-3.904;2022-12-18T00:00:46;4.60;87.70
51007;DHT22;37034;47.886;-3.904;2022-12-18T00:03:15;4.70;87.50
51007;DHT22;37034;47.886;-3.904;2022-12-18T00:05:51;4.70;87.60
51007;DHT22;37034;47.886;-3.904;2022-12-18T00:08:17;4.70;87.60
51007;DHT22;37034;47.886;-3.904;2022-12-18T00:10:44;4.70;87.60
51007;DHT22;37034;47.886;-3.904;2022-12-18T00:13:10;4.60;88.00
51007;DHT22;37034;47.886;-3.904;2022-12-18T00:15:37;4.50;88.20
51007;DHT22;37034;47.886;-3.904;2022-12-18T00:18:04;4.60;88.10
51007;DHT22;37034;47.886;-3.904;2022-12-18T00:20:30;4.60;88.30
51007;DHT22;37034;47.886;-3.904;2022-12-18T00:22:56;4.60;88.00
51007;DHT22;37034;47.886;-3.904;2022-12-18T00:25:22;4.60;87.80
51007;DHT22;37034;47.886;-3.904;2022-12-18T00:27:48;4.70;88.20
51007;DHT22;37034;47.886;-3.904;2022-12-18T00:30:14;4.70;88.10
51007;DHT22;37034;47.886;-3.904;2022-12-18T00:32:40;4.60;88.20
51007;DHT22;37034;47.886;-3.904;2022-12-18T00:35:06;4.70;88.80
51007;DHT22;37034;47.886;-3.904;2022-12-18T00:37:35;4.60;88.30
51007;DHT22;37034;47.886;-3.904;2022-12-18T00:40:02;4.80;88.70
51007;DHT22;37034;47.886;-3.904;2022-12-18T00:42:27;4.80;88.40
51007;DHT22;37034;47.886;-3.904;2022-12-18T00:45:19;4.70;88.40
51007;DHT22;37034;47.886;-3.904;2022-12-18T00:47:45;4.80;88.20
51007;DHT22;37034;47.886;-3.904;2022-12-18T00:50:10;4.80;88.50
51007;DHT22;37034;47.886;-3.904;2022-12-18T00:52:36;4.80;88.90
51007;DHT22;37034;47.886;-3.904;2022-12-18T00:55:02;4.70;88.60
51007;DHT22;37034;47.886;-3.904;2022-12-18T00:57:28;4.70;89.10
51007;DHT22;37034;47.886;-3.904;2022-12-18T00:59:53;4.70;88.90
51007;DHT22;37034;47.886;-3.904;2022-12-18T01:02:19;4.70;89.00
51007;DHT22;37034;47.886;-3.904;2022-12-18T01:04:45;4.70;89.00
51007;DHT22;37034;47.886;-3.904;2022-12-18T01:07:11;4.80;89.30
51007;DHT22;37034;47.886;-3.904;2022-12-18T01:09:37;4.80;89.20
51007;DHT22;37034;47.886;-3.904;2022-12-18T01:12:02;4.80;89.10
51007;DHT22;37034;47.886;-3.904;2022-12-18T01:14:28;4.80;89.50
51007;DHT22;37034;47.886;-3.904;2022-12-18T01:16:54;4.80;89.20
51007;DHT22;37034;47.886;-3.904;2022-12-18T01:19:19;4.90;89.30
51007;DHT22;37034;47.886;-3.904;2022-12-18T01:21:45;4.90;89.30
51007;DHT22;37034;47.886;-3.904;2022-12-18T01:24:11;4.90;89.50
51007;DHT22;37034;47.886;-3.904;2022-12-18T01:26:37;5.00;89.70
51007;DHT22;37034;47.886;-3.904;2022-12-18T01:29:03;5.00;89.30
51007;DHT22;37034;47.886;-3.904;2022-12-18T01:31:31;5.00;89.70
51007;DHT22;37034;47.886;-3.904;2022-12-18T01:34:00;5.00;89.80
51007;DHT22;37034;47.886;-3.904;2022-12-18T01:36:29;5.10;89.80
51007;DHT22;37034;47.886;-3.904;2022-12-18T01:38:55;5.00;89.50
51007;DHT22;37034;47.886;-3.904;2022-12-18T01:41:24;5.10;89.70
51007;DHT22;37034;47.886;-3.904;2022-12-18T01:43:56;5.00;89.50
51007;DHT22;37034;47.886;-3.904;2022-12-18T01:46:26;5.10;89.90
51007;DHT22;37034;47.886;-3.904;2022-12-18T01:48:55;5.20;89.70
51007;DHT22;37034;47.886;-3.904;2022-12-18T01:51:23;5.00;90.00
51007;DHT22;37034;47.886;-3.904;2022-12-18T01:53:49;5.00;90.10
51007;DHT22;37034;47.886;-3.904;2022-12-18T01:56:16;5.10;90.20
51007;DHT22;37034;47.886;-3.904;2022-12-18T01:58:59;5.10;90.10
51007;DHT22;37034;47.886;-3.904;2022-12-18T02:01:28;5.10;90.10
51007;DHT22;37034;47.886;-3.904;2022-12-18T02:03:54;5.10;90.00
51007;DHT22;37034;47.886;-3.904;2022-12-18T02:06:30;5.10;90.20
51007;DHT22;37034;47.886;-3.904;2022-12-18T02:09:05;5.10;90.50
51007;DHT22;37034;47.886;-3.904;2022-12-18T02:11:42;5.20;90.50
51007;DHT22;37034;47.886;-3.904;2022-12-18T02:27:20;5.10;90.80
51007;DHT22;37034;47.886;-3.904;2022-12-18T02:29:51;5.30;90.70
51007;DHT22;37034;47.886;-3.904;2022-12-18T02:32:24;5.20;90.90
51007;DHT22;37034;47.886;-3.904;2022-12-18T02:34:51;5.20;91.00
51007;DHT22;37034;47.886;-3.904;2022-12-18T02:37:19;5.20;90.90
51007;DHT22;37034;47.886;-3.904;2022-12-18T02:39:47;5.20;90.90
51007;DHT22;37034;47.886;-3.904;2022-12-18T02:42:14;5.30;90.80
51007;DHT22;37034;47.886;-3.904;2022-12-18T02:44:49;5.30;90.90
51007;DHT22;37034;47.886;-3.904;2022-12-18T02:47:18;5.30;91.00
51007;DHT22;37034;47.886;-3.904;2022-12-18T02:52:31;5.30;90.90
51007;DHT22;37034;47.886;-3.904;2022-12-18T02:55:05;5.30;91.00
51007;DHT22;37034;47.886;-3.904;2022-12-18T02:57:48;5.30;91.00
51007;DHT22;37034;47.886;-3.904;2022-12-18T03:00:22;5.30;91.00
51007;DHT22;37034;47.886;-3.904;2022-12-18T03:05:53;5.30;91.10
51007;DHT22;37034;47.886;-3.904;2022-12-18T03:08:23;5.30;91.40
51007;DHT22;37034;47.886;-3.904;2022-12-18T03:10:53;5.30;91.40
51007;DHT22;37034;47.886;-3.904;2022-12-18T03:13:25;5.40;91.50
51007;DHT22;37034;47.886;-3.904;2022-12-18T03:15:53;5.40;91.40
51007;DHT22;37034;47.886;-3.904;2022-12-18T03:21:02;5.40;91.80
51007;DHT22;37034;47.886;-3.904;2022-12-18T03:23:34;5.50;91.70
51007;DHT22;37034;47.886;-3.904;2022-12-18T03:26:05;5.60;91.70
51007;DHT22;37034;47.886;-3.904;2022-12-18T03:28:34;5.70;91.60
51007;DHT22;37034;47.886;-3.904;2022-12-18T03:31:02;5.70;91.80
51007;DHT22;37034;47.886;-3.904;2022-12-18T03:33:46;5.70;91.80
51007;DHT22;37034;47.886;-3.904;2022-12-18T03:36:12;5.70;91.80
51007;DHT22;37034;47.886;-3.904;2022-12-18T03:38:38;5.80;91.70
51007;DHT22;37034;47.886;-3.904;2022-12-18T03:43:48;5.90;91.60
51007;DHT22;37034;47.886;-3.904;2022-12-18T03:49:20;5.80;91.80
51007;DHT22;37034;47.886;-3.904;2022-12-18T03:51:50;5.80;91.70
51007;DHT22;37034;47.886;-3.904;2022-12-18T03:54:17;5.80;92.00
51007;DHT22;37034;47.886;-3.904;2022-12-18T03:56:50;5.90;91.90
51007;DHT22;37034;47.886;-3.904;2022-12-18T03:59:20;6.00;92.10
51007;DHT22;37034;47.886;-3.904;2022-12-18T04:01:49;5.90;91.70
51007;DHT22;37034;47.886;-3.904;2022-12-18T04:04:18;5.90;91.80
51007;DHT22;37034;47.886;-3.904;2022-12-18T04:06:46;5.90;91.80
51007;DHT22;37034;47.886;-3.904;2022-12-18T04:09:13;5.90;92.10
51007;DHT22;37034;47.886;-3.904;2022-12-18T04:11:40;5.90;92.10
51007;DHT22;37034;47.886;-3.904;2022-12-18T04:14:06;6.00;91.90
51007;DHT22;37034;47.886;-3.904;2022-12-18T04:16:32;5.90;92.00
51007;DHT22;37034;47.886;-3.904;2022-12-18T04:18:57;6.00;92.00
51007;DHT22;37034;47.886;-3.904;2022-12-18T04:21:23;6.00;92.00
51007;DHT22;37034;47.886;-3.904;2022-12-18T04:23:49;6.00;92.50
51007;DHT22;37034;47.886;-3.904;2022-12-18T04:26:15;6.00;92.60
51007;DHT22;37034;47.886;-3.904;2022-12-18T04:28:41;6.10;92.60
51007;DHT22;37034;47.886;-3.904;2022-12-18T04:31:06;6.10;92.60
51007;DHT22;37034;47.886;-3.904;2022-12-18T04:33:32;6.10;92.60
51007;DHT22;37034;47.886;-3.904;2022-12-18T04:35:58;6.10;92.70
51007;DHT22;37034;47.886;-3.904;2022-12-18T04:38:24;6.20;92.70
51007;DHT22;37034;47.886;-3.904;2022-12-18T04:40:50;6.20;92.80
51007;DHT22;37034;47.886;-3.904;2022-12-18T04:43:16;6.20;93.00
51007;DHT22;37034;47.886;-3.904;2022-12-18T04:45:41;6.20;93.30
51007;DHT22;37034;47.886;-3.904;2022-12-18T04:48:07;6.20;93.20
51007;DHT22;37034;47.886;-3.904;2022-12-18T04:50:33;6.20;93.60
51007;DHT22;37034;47.886;-3.904;2022-12-18T04:52:59;6.20;93.30
51007;DHT22;37034;47.886;-3.904;2022-12-18T04:55:24;6.20;93.40
51007;DHT22;37034;47.886;-3.904;2022-12-18T04:57:50;6.30;93.40
51007;DHT22;37034;47.886;-3.904;2022-12-18T05:00:16;6.30;93.30
51007;DHT22;37034;47.886;-3.904;2022-12-18T05:02:42;6.40;93.40
51007;DHT22;37034;47.886;-3.904;2022-12-18T05:05:08;6.30;93.60
51007;DHT22;37034;47.886;-3.904;2022-12-18T05:07:33;6.40;93.60
51007;DHT22;37034;47.886;-3.904;2022-12-18T05:09:59;6.40;93.60
51007;DHT22;37034;47.886;-3.904;2022-12-18T05:12:25;6.40;93.70
51007;DHT22;37034;47.886;-3.904;2022-12-18T05:14:51;6.40;93.70
51007;DHT22;37034;47.886;-3.904;2022-12-18T05:17:17;6.40;93.70
51007;DHT22;37034;47.886;-3.904;2022-12-18T05:19:42;6.40;93.90
51007;DHT22;37034;47.886;-3.904;2022-12-18T05:22:09;6.40;94.00
51007;DHT22;37034;47.886;-3.904;2022-12-18T05:24:35;6.50;94.00
51007;DHT22;37034;47.886;-3.904;2022-12-18T05:27:02;6.40;94.10
51007;DHT22;37034;47.886;-3.904;2022-12-18T05:29:28;6.40;94.20
51007;DHT22;37034;47.886;-3.904;2022-12-18T05:31:54;6.40;94.40
51007;DHT22;37034;47.886;-3.904;2022-12-18T05:34:21;6.40;94.20
51007;DHT22;37034;47.886;-3.904;2022-12-18T05:36:47;6.60;94.20
51007;DHT22;37034;47.886;-3.904;2022-12-18T05:39:14;6.60;94.10
51007;DHT22;37034;47.886;-3.904;2022-12-18T05:41:39;6.50;94.10
51007;DHT22;37034;47.886;-3.904;2022-12-18T05:44:05;6.60;94.10
51007;DHT22;37034;47.886;-3.904;2022-12-18T05:46:31;6.70;94.30
51007;DHT22;37034;47.886;-3.904;2022-12-18T05:49:01;6.70;94.30
51007;DHT22;37034;47.886;-3.904;2022-12-18T05:51:29;6.70;94.50
51007;DHT22;37034;47.886;-3.904;2022-12-18T05:53:58;6.70;94.50
51007;DHT22;37034;47.886;-3.904;2022-12-18T05:56:24;6.70;94.50
51007;DHT22;37034;47.886;-3.904;2022-12-18T05:58:53;6.70;94.60
51007;DHT22;37034;47.886;-3.904;2022-12-18T06:01:23;6.80;94.60
51007;DHT22;37034;47.886;-3.904;2022-12-18T06:03:50;6.70;94.50
51007;DHT22;37034;47.886;-3.904;2022-12-18T06:06:22;6.80;94.60
51007;DHT22;37034;47.886;-3.904;2022-12-18T06:08:49;6.80;94.60
51007;DHT22;37034;47.886;-3.904;2022-12-18T06:11:20;6.90;94.70
51007;DHT22;37034;47.886;-3.904;2022-12-18T06:13:59;6.80;94.60
51007;DHT22;37034;47.886;-3.904;2022-12-18T06:16:27;6.90;94.70
51007;DHT22;37034;47.886;-3.904;2022-12-18T06:19:04;7.00;94.80
51007;DHT22;37034;47.886;-3.904;2022-12-18T06:21:31;7.00;95.10
51007;DHT22;37034;47.886;-3.904;2022-12-18T06:23:57;7.10;95.00
51007;DHT22;37034;47.886;-3.904;2022-12-18T06:26:23;7.20;95.10
51007;DHT22;37034;47.886;-3.904;2022-12-18T06:28:50;7.20;95.20
51007;DHT22;37034;47.886;-3.904;2022-12-18T06:31:16;7.30;95.10
51007;DHT22;37034;47.886;-3.904;2022-12-18T06:33:42;7.30;95.20
51007;DHT22;37034;47.886;-3.904;2022-12-18T06:36:28;7.40;95.30
51007;DHT22;37034;47.886;-3.904;2022-12-18T06:38:55;7.40;95.40
51007;DHT22;37034;47.886;-3.904;2022-12-18T06:41:21;7.40;95.50
51007;DHT22;37034;47.886;-3.904;2022-12-18T06:43:47;7.50;95.70
51007;DHT22;37034;47.886;-3.904;2022-12-18T06:46:13;7.60;95.70
51007;DHT22;37034;47.886;-3.904;2022-12-18T06:48:39;7.70;95.80
51007;DHT22;37034;47.886;-3.904;2022-12-18T06:51:05;7.80;95.90
51007;DHT22;37034;47.886;-3.904;2022-12-18T06:53:32;7.80;96.00
51007;DHT22;37034;47.886;-3.904;2022-12-18T06:56:06;7.80;96.10
51007;DHT22;37034;47.886;-3.904;2022-12-18T06:58:32;7.90;96.20
51007;DHT22;37034;47.886;-3.904;2022-12-18T07:01:02;8.00;96.30
51007;DHT22;37034;47.886;-3.904;2022-12-18T07:03:28;8.10;96.10
51007;DHT22;37034;47.886;-3.904;2022-12-18T07:05:54;8.20;96.20
51007;DHT22;37034;47.886;-3.904;2022-12-18T07:08:20;8.20;96.10
51007;DHT22;37034;47.886;-3.904;2022-12-18T07:10:46;8.20;96.30
51007;DHT22;37034;47.886;-3.904;2022-12-18T07:13:15;8.30;96.30
51007;DHT22;37034;47.886;-3.904;2022-12-18T07:15:41;8.30;96.10
51007;DHT22;37034;47.886;-3.904;2022-12-18T07:18:06;8.40;96.00
51007;DHT22;37034;47.886;-3.904;2022-12-18T07:20:32;8.40;95.90
51007;DHT22;37034;47.886;-3.904;2022-12-18T07:22:58;8.40;95.80
51007;DHT22;37034;47.886;-3.904;2022-12-18T07:25:26;8.50;95.90
51007;DHT22;37034;47.886;-3.904;2022-12-18T07:27:51;8.50;95.70
51007;DHT22;37034;47.886;-3.904;2022-12-18T07:30:17;8.50;95.70
51007;DHT22;37034;47.886;-3.904;2022-12-18T07:32:43;8.60;95.80
51007;DHT22;37034;47.886;-3.904;2022-12-18T07:35:08;8.70;96.10
51007;DHT22;37034;47.886;-3.904;2022-12-18T07:37:34;8.70;96.10
51007;DHT22;37034;47.886;-3.904;2022-12-18T07:40:00;8.80;96.30
51007;DHT22;37034;47.886;-3.904;2022-12-18T07:42:26;8.90;96.40
51007;DHT22;37034;47.886;-3.904;2022-12-18T07:45:00;9.00;96.80
51007;DHT22;37034;47.886;-3.904;2022-12-18T07:47:28;9.10;97.00
51007;DHT22;37034;47.886;-3.904;2022-12-18T07:50:04;9.20;97.10
51007;DHT22;37034;47.886;-3.904;2022-12-18T07:52:30;9.40;97.40
51007;DHT22;37034;47.886;-3.904;2022-12-18T07:54:58;9.50;98.30
51007;DHT22;37034;47.886;-3.904;2022-12-18T07:57:29;9.70;98.40
51007;DHT22;37034;47.886;-3.904;2022-12-18T07:59:55;10.00;99.10
51007;DHT22;37034;47.886;-3.904;2022-12-18T08:02:22;10.30;99.10
51007;DHT22;37034;47.886;-3.904;2022-12-18T08:04:49;10.50;99.10
51007;DHT22;37034;47.886;-3.904;2022-12-18T08:07:27;10.80;99.10
51007;DHT22;37034;47.886;-3.904;2022-12-18T08:09:55;10.90;99.40
51007;DHT22;37034;47.886;-3.904;2022-12-18T08:12:20;11.20;99.30
51007;DHT22;37034;47.886;-3.904;2022-12-18T08:14:47;11.40;99.50
51007;DHT22;37034;47.886;-3.904;2022-12-18T08:17:13;11.50;99.60
51007;DHT22;37034;47.886;-3.904;2022-12-18T08:19:38;11.60;99.60
51007;DHT22;37034;47.886;-3.904;2022-12-18T08:22:05;11.70;99.60
51007;DHT22;37034;47.886;-3.904;2022-12-18T08:24:32;11.80;99.70
51007;DHT22;37034;47.886;-3.904;2022-12-18T08:26:59;11.90;99.70
51007;DHT22;37034;47.886;-3.904;2022-12-18T08:29:26;12.10;99.70
51007;DHT22;37034;47.886;-3.904;2022-12-18T08:31:52;12.20;99.50
51007;DHT22;37034;47.886;-3.904;2022-12-18T08:34:17;12.30;99.30
51007;DHT22;37034;47.886;-3.904;2022-12-18T08:36:43;12.40;99.40
51007;DHT22;37034;47.886;-3.904;2022-12-18T08:39:09;12.40;99.30
51007;DHT22;37034;47.886;-3.904;2022-12-18T08:41:34;12.50;99.10
51007;DHT22;37034;47.886;-3.904;2022-12-18T08:44:00;12.50;99.50
51007;DHT22;37034;47.886;-3.904;2022-12-18T08:46:45;12.60;99.30
51007;DHT22;37034;47.886;-3.904;2022-12-18T08:49:11;12.70;99.20
51007;DHT22;37034;47.886;-3.904;2022-12-18T08:51:38;12.70;99.20
51007;DHT22;37034;47.886;-3.904;2022-12-18T08:54:05;12.70;99.10
51007;DHT22;37034;47.886;-3.904;2022-12-18T08:56:31;12.80;98.80
51007;DHT22;37034;47.886;-3.904;2022-12-18T08:58:58;12.80;98.70
51007;DHT22;37034;47.886;-3.904;2022-12-18T09:01:24;12.70;98.70
51007;DHT22;37034;47.886;-3.904;2022-12-18T09:03:50;12.70;98.90
51007;DHT22;37034;47.886;-3.904;2022-12-18T09:06:18;12.70;98.70
51007;DHT22;37034;47.886;-3.904;2022-12-18T09:08:44;12.70;98.80
51007;DHT22;37034;47.886;-3.904;2022-12-18T09:11:25;12.70;98.90
51007;DHT22;37034;47.886;-3.904;2022-12-18T09:13:51;12.80;99.00
51007;DHT22;37034;47.886;-3.904;2022-12-18T09:16:18;12.80;98.90
51007;DHT22;37034;47.886;-3.904;2022-12-18T09:18:45;12.80;99.00
51007;DHT22;37034;47.886;-3.904;2022-12-18T09:21:16;12.80;98.90
51007;DHT22;37034;47.886;-3.904;2022-12-18T09:23:49;12.80;98.90
51007;DHT22;37034;47.886;-3.904;2022-12-18T09:26:15;12.80;99.20
51007;DHT22;37034;47.886;-3.904;2022-12-18T09:28:43;12.80;99.20
51007;DHT22;37034;47.886;-3.904;2022-12-18T09:31:13;12.70;99.10
51007;DHT22;37034;47.886;-3.904;2022-12-18T09:33:39;12.90;99.20
51007;DHT22;37034;47.886;-3.904;2022-12-18T09:36:07;12.90;99.10
51007;DHT22;37034;47.886;-3.904;2022-12-18T09:38:35;12.80;99.50
51007;DHT22;37034;47.886;-3.904;2022-12-18T09:41:15;12.90;99.60
51007;DHT22;37034;47.886;-3.904;2022-12-18T09:43:49;13.00;99.70
51007;DHT22;37034;47.886;-3.904;2022-12-18T09:46:23;13.00;99.40
51007;DHT22;37034;47.886;-3.904;2022-12-18T09:48:52;13.10;99.50
51007;DHT22;37034;47.886;-3.904;2022-12-18T09:51:23;13.10;99.80
51007;DHT22;37034;47.886;-3.904;2022-12-18T09:54:04;13.10;99.80
51007;DHT22;37034;47.886;-3.904;2022-12-18T09:56:35;13.20;99.90
51007;DHT22;37034;47.886;-3.904;2022-12-18T09:59:04;13.20;99.80
51007;DHT22;37034;47.886;-3.904;2022-12-18T10:01:31;13.20;99.90
51007;DHT22;37034;47.886;-3.904;2022-12-18T10:03:58;13.20;99.80
51007;DHT22;37034;47.886;-3.904;2022-12-18T10:07:01;13.20;99.90
51007;DHT22;37034;47.886;-3.904;2022-12-18T10:09:40;13.10;99.90
51007;DHT22;37034;47.886;-3.904;2022-12-18T10:12:23;13.20;99.90
51007;DHT22;37034;47.886;-3.904;2022-12-18T10:14:57;13.30;99.90
51007;DHT22;37034;47.886;-3.904;2022-12-18T10:17:53;13.30;99.90
51007;DHT22;37034;47.886;-3.904;2022-12-18T10:20:41;13.20;99.90
51007;DHT22;37034;47.886;-3.904;2022-12-18T10:26:08;13.20;99.90
51007;DHT22;37034;47.886;-3.904;2022-12-18T10:28:37;13.30;99.90
51007;DHT22;37034;47.886;-3.904;2022-12-18T10:31:12;13.30;99.90
51007;DHT22;37034;47.886;-3.904;2022-12-18T10:33:41;13.30;99.90
51007;DHT22;37034;47.886;-3.904;2022-12-18T10:36:07;13.30;99.80
51007;DHT22;37034;47.886;-3.904;2022-12-18T10:38:33;13.10;99.90
51007;DHT22;37034;47.886;-3.904;2022-12-18T10:43:46;13.30;99.90
51007;DHT22;37034;47.886;-3.904;2022-12-18T10:46:17;13.30;99.60
51007;DHT22;37034;47.886;-3.904;2022-12-18T10:51:39;13.30;99.70
51007;DHT22;37034;47.886;-3.904;2022-12-18T10:54:12;13.20;99.80
51007;DHT22;37034;47.886;-3.904;2022-12-18T10:56:40;13.20;99.90
51007;DHT22;37034;47.886;-3.904;2022-12-18T10:59:08;13.20;99.60
51007;DHT22;37034;47.886;-3.904;2022-12-18T11:01:55;13.10;99.70
51007;DHT22;37034;47.886;-3.904;2022-12-18T11:04:23;13.10;99.70
51007;DHT22;37034;47.886;-3.904;2022-12-18T11:07:15;13.10;99.80
51007;DHT22;37034;47.886;-3.904;2022-12-18T11:09:41;13.10;99.90
51007;DHT22;37034;47.886;-3.904;2022-12-18T11:14:47;13.00;99.90
51007;DHT22;37034;47.886;-3.904;2022-12-18T11:17:25;13.10;99.90
51007;DHT22;37034;47.886;-3.904;2022-12-18T11:19:55;13.10;99.70
51007;DHT22;37034;47.886;-3.904;2022-12-18T11:22:32;13.10;99.70
51007;DHT22;37034;47.886;-3.904;2022-12-18T11:25:19;13.10;99.80
51007;DHT22;37034;47.886;-3.904;2022-12-18T11:27:54;13.20;99.90
51007;DHT22;37034;47.886;-3.904;2022-12-18T11:33:18;13.20;99.80
51007;DHT22;37034;47.886;-3.904;2022-12-18T11:35:51;13.20;99.90
51007;DHT22;37034;47.886;-3.904;2022-12-18T11:38:29;13.20;99.70
51007;DHT22;37034;47.886;-3.904;2022-12-18T11:40:58;13.20;99.80
51007;DHT22;37034;47.886;-3.904;2022-12-18T11:46:10;13.10;99.90
51007;DHT22;37034;47.886;-3.904;2022-12-18T11:48:57;13.20;99.90
51007;DHT22;37034;47.886;-3.904;2022-12-18T11:51:31;13.20;99.90
51007;DHT22;37034;47.886;-3.904;2022-12-18T11:54:00;13.10;99.90
51007;DHT22;37034;47.886;-3.904;2022-12-18T11:56:46;13.10;99.90
51007;DHT22;37034;47.886;-3.904;2022-12-18T12:02:38;13.30;99.90
51007;DHT22;37034;47.886;-3.904;2022-12-18T12:08:09;13.40;99.80
51007;DHT22;37034;47.886;-3.904;2022-12-18T12:16:26;13.20;99.90
51007;DHT22;37034;47.886;-3.904;2022-12-18T12:19:06;13.20;99.90
51007;DHT22;37034;47.886;-3.904;2022-12-18T12:21:48;13.30;99.90
51007;DHT22;37034;47.886;-3.904;2022-12-18T12:30:05;13.50;99.90
51007;DHT22;37034;47.886;-3.904;2022-12-18T12:35:52;13.50;99.90
51007;DHT22;37034;47.886;-3.904;2022-12-18T12:38:30;13.50;99.90
51007;DHT22;37034;47.886;-3.904;2022-12-18T12:41:04;13.50;99.90
51007;DHT22;37034;47.886;-3.904;2022-12-18T12:46:08;13.60;99.90
51007;DHT22;37034;47.886;-3.904;2022-12-18T12:48:47;13.70;99.90
51007;DHT22;37034;47.886;-3.904;2022-12-18T12:51:29;13.70;99.90
51007;DHT22;37034;47.886;-3.904;2022-12-18T12:53:58;13.70;99.90
51007;DHT22;37034;47.886;-3.904;2022-12-18T12:56:36;13.70;99.90
51007;DHT22;37034;47.886;-3.904;2022-12-18T12:59:22;13.50;99.90
51007;DHT22;37034;47.886;-3.904;2022-12-18T13:04:57;13.60;99.90
51007;DHT22;37034;47.886;-3.904;2022-12-18T13:07:59;13.60;99.90
51007;DHT22;37034;47.886;-3.904;2022-12-18T13:13:12;13.60;99.90
51007;DHT22;37034;47.886;-3.904;2022-12-18T13:15:46;13.60;99.90
51007;DHT22;37034;47.886;-3.904;2022-12-18T13:18:24;13.60;99.90
51007;DHT22;37034;47.886;-3.904;2022-12-18T13:25:54;13.50;99.90
51007;DHT22;37034;47.886;-3.904;2022-12-18T13:31:07;13.40;99.90
51007;DHT22;37034;47.886;-3.904;2022-12-18T13:33:43;13.40;99.90
51007;DHT22;37034;47.886;-3.904;2022-12-18T13:38:47;13.30;99.90
51007;DHT22;37034;47.886;-3.904;2022-12-18T13:41:33;13.40;99.90
51007;DHT22;37034;47.886;-3.904;2022-12-18T13:44:32;13.50;99.90
51007;DHT22;37034;47.886;-3.904;2022-12-18T13:46:59;13.50;99.90
51007;DHT22;37034;47.886;-3.904;2022-12-18T13:49:28;13.60;99.90
51007;DHT22;37034;47.886;-3.904;2022-12-18T13:51:57;13.50;99.90
51007;DHT22;37034;47.886;-3.904;2022-12-18T13:54:37;13.60;99.90
51007;DHT22;37034;47.886;-3.904;2022-12-18T13:57:05;13.60;99.90
51007;DHT22;37034;47.886;-3.904;2022-12-18T13:59:38;13.50;99.90
51007;DHT22;37034;47.886;-3.904;2022-12-18T14:02:14;13.50;99.90
51007;DHT22;37034;47.886;-3.904;2022-12-18T14:04:40;13.50;99.90
51007;DHT22;37034;47.886;-3.904;2022-12-18T14:07:12;13.50;99.90
51007;DHT22;37034;47.886;-3.904;2022-12-18T14:09:45;13.40;99.90
51007;DHT22;37034;47.886;-3.904;2022-12-18T14:12:29;13.50;99.90
51007;DHT22;37034;47.886;-3.904;2022-12-18T14:18:09;13.30;99.90
51007;DHT22;37034;47.886;-3.904;2022-12-18T14:20:40;13.30;99.90
51007;DHT22;37034;47.886;-3.904;2022-12-18T14:23:28;13.30;99.90
51007;DHT22;37034;47.886;-3.904;2022-12-18T14:25:55;13.40;99.90
51007;DHT22;37034;47.886;-3.904;2022-12-18T14:28:20;13.40;99.90
51007;DHT22;37034;47.886;-3.904;2022-12-18T14:30:49;13.40;99.90
51007;DHT22;37034;47.886;-3.904;2022-12-18T14:33:24;13.40;99.90
51007;DHT22;37034;47.886;-3.904;2022-12-18T14:41:06;13.30;99.90
51007;DHT22;37034;47.886;-3.904;2022-12-18T14:43:37;13.30;99.90
51007;DHT22;37034;47.886;-3.904;2022-12-18T14:46:05;13.20;99.90
51007;DHT22;37034;47.886;-3.904;2022-12-18T14:48:39;13.30;99.90
51007;DHT22;37034;47.886;-3.904;2022-12-18T14:51:22;13.30;99.90
51007;DHT22;37034;47.886;-3.904;2022-12-18T14:53:59;13.30;99.90
51007;DHT22;37034;47.886;-3.904;2022-12-18T14:59:22;13.30;99.90
51007;DHT22;37034;47.886;-3.904;2022-12-18T15:02:15;13.20;99.90
51007;DHT22;37034;47.886;-3.904;2022-12-18T15:04:44;13.20;99.90
51007;DHT22;37034;47.886;-3.904;2022-12-18T15:09:37;13.20;99.90
51007;DHT22;37034;47.886;-3.904;2022-12-18T15:12:04;13.10;99.90
51007;DHT22;37034;47.886;-3.904;2022-12-18T15:16:57;13.10;99.90
51007;DHT22;37034;47.886;-3.904;2022-12-18T15:21:59;13.20;99.90
51007;DHT22;37034;47.886;-3.904;2022-12-18T15:24:30;13.10;99.90
51007;DHT22;37034;47.886;-3.904;2022-12-18T15:26:57;13.20;99.90
51007;DHT22;37034;47.886;-3.904;2022-12-18T15:29:23;13.30;99.90
51007;DHT22;37034;47.886;-3.904;2022-12-18T15:32:02;13.30;99.90
51007;DHT22;37034;47.886;-3.904;2022-12-18T15:34:28;13.20;99.90
51007;DHT22;37034;47.886;-3.904;2022-12-18T15:36:54;13.30;99.90
51007;DHT22;37034;47.886;-3.904;2022-12-18T15:39:20;13.30;99.90
51007;DHT22;37034;47.886;-3.904;2022-12-18T15:41:46;13.30;99.90
51007;DHT22;37034;47.886;-3.904;2022-12-18T15:44:30;13.30;99.90
51007;DHT22;37034;47.886;-3.904;2022-12-18T15:46:57;13.40;99.90
51007;DHT22;37034;47.886;-3.904;2022-12-18T15:49:23;13.30;99.90
51007;DHT22;37034;47.886;-3.904;2022-12-18T15:51:53;13.40;99.90
51007;DHT22;37034;47.886;-3.904;2022-12-18T15:54:20;13.40;99.90
51007;DHT22;37034;47.886;-3.904;2022-12-18T15:57:07;13.40;99.90
51007;DHT22;37034;47.886;-3.904;2022-12-18T15:59:49;13.40;99.90
51007;DHT22;37034;47.886;-3.904;2022-12-18T16:02:16;13.50;99.90
51007;DHT22;37034;47.886;-3.904;2022-12-18T16:04:42;13.50;99.90
51007;DHT22;37034;47.886;-3.904;2022-12-18T16:07:08;13.50;99.90
51007;DHT22;37034;47.886;-3.904;2022-12-18T16:09:34;13.50;99.90
51007;DHT22;37034;47.886;-3.904;2022-12-18T16:12:00;13.50;99.90
51007;DHT22;37034;47.886;-3.904;2022-12-18T16:14:28;13.50;99.90
51007;DHT22;37034;47.886;-3.904;2022-12-18T16:17:01;13.50;99.90
51007;DHT22;37034;47.886;-3.904;2022-12-18T16:19:28;13.60;99.90
51007;DHT22;37034;47.886;-3.904;2022-12-18T16:21:56;13.70;99.90
51007;DHT22;37034;47.886;-3.904;2022-12-18T16:24:24;13.70;99.90
51007;DHT22;37034;47.886;-3.904;2022-12-18T16:26:51;13.70;99.90
51007;DHT22;37034;47.886;-3.904;2022-12-18T16:29:18;13.70;99.90
51007;DHT22;37034;47.886;-3.904;2022-12-18T16:31:44;13.80;99.90
51007;DHT22;37034;47.886;-3.904;2022-12-18T16:34:24;13.80;99.90
51007;DHT22;37034;47.886;-3.904;2022-12-18T16:36:57;13.80;99.90
51007;DHT22;37034;47.886;-3.904;2022-12-18T16:42:52;13.90;99.90
51007;DHT22;37034;47.886;-3.904;2022-12-18T16:45:18;13.90;99.90
51007;DHT22;37034;47.886;-3.904;2022-12-18T16:47:44;13.90;99.90
51007;DHT22;37034;47.886;-3.904;2022-12-18T16:50:10;13.90;99.90
51007;DHT22;37034;47.886;-3.904;2022-12-18T16:52:36;13.90;99.90
51007;DHT22;37034;47.886;-3.904;2022-12-18T16:55:03;14.00;99.90
51007;DHT22;37034;47.886;-3.904;2022-12-18T16:57:29;13.90;99.90
51007;DHT22;37034;47.886;-3.904;2022-12-18T16:59:54;13.90;99.90
51007;DHT22;37034;47.886;-3.904;2022-12-18T17:02:23;14.00;99.90
51007;DHT22;37034;47.886;-3.904;2022-12-18T17:04:49;13.90;99.90
51007;DHT22;37034;47.886;-3.904;2022-12-18T17:07:17;14.00;99.90
51007;DHT22;37034;47.886;-3.904;2022-12-18T17:09:43;14.00;99.90
51007;DHT22;37034;47.886;-3.904;2022-12-18T17:12:09;14.00;99.90
51007;DHT22;37034;47.886;-3.904;2022-12-18T17:14:35;14.10;99.90
51007;DHT22;37034;47.886;-3.904;2022-12-18T17:17:00;14.00;99.90
51007;DHT22;37034;47.886;-3.904;2022-12-18T17:19:27;14.10;99.90
51007;DHT22;37034;47.886;-3.904;2022-12-18T17:21:52;14.10;99.90
51007;DHT22;37034;47.886;-3.904;2022-12-18T17:24:19;14.20;99.90